AYPY/POM METAR and TAF weather

Enter ICAO airport designator
Station Type Date Time Source
AYPY METAR 2019/04/23 00:00 UTC NOAA

AYPY 230000Z 12008KT 9999 SCT025 SCT035 30/25 Q1011 RMK


Station Type Date Time Source
AYPY Decoded METAR 2019/04/23 00:00 UTC NOAA

Moresby, Papua New Guinea (AYPY) 09-26S 147-13E 49M
Apr 22, 2019 - 08:00 PM EDT / 2019.04.23 0000 UTC
Wind: from the ESE (120 degrees) at 9 MPH (8 KT):0
Visibility: greater than 7 mile(s):0
Sky conditions: partly cloudy
Temperature: 86 F (30 C)
Heat index: 96.8 F (36.0 C):1
Dew Point: 77 F (25 C)
Relative Humidity: 74%
Pressure (altimeter): 29.85 in. Hg (1011 hPa)
ob: AYPY 230000Z 12008KT 9999 SCT025 SCT035 30/25 Q1011 RMK
cycle: 0

Station Type Date Time Source
AYPY TAF 2019/04/22 18:50 UTC NOAA

TAF AYPY 221500Z 2218/2318 00000KT 9999 SCT035
FM222100 16007KT 9999 FEW018 SCT140
FM230500 16012KT 9999 SCT020 SCT140 PROB20 2219/2221 0700 FG

Example: see airport list